createdAt,value
2019-05-02T00:02:18.377Z,83.07
2019-05-02T00:04:51.043Z,83.54
2019-05-02T00:07:20.222Z,84.43
2019-05-02T00:09:48.378Z,84.07
2019-05-02T00:12:20.040Z,84.32
2019-05-02T00:14:48.633Z,84.35
2019-05-02T00:17:20.455Z,84.37
2019-05-02T00:19:51.280Z,84.04
2019-05-02T00:22:20.717Z,84.45
2019-05-02T00:24:48.994Z,84.63
2019-05-02T00:27:17.306Z,84.76
2019-05-02T00:29:46.638Z,85.05
2019-05-02T00:32:18.294Z,84.91
2019-05-02T00:34:45.917Z,85.23
2019-05-02T00:37:18.786Z,85.08
2019-05-02T00:39:49.133Z,85.48
2019-05-02T00:42:17.559Z,85.79
2019-05-02T00:44:48.158Z,85.89
2019-05-02T00:47:42.310Z,85.19
2019-05-02T00:50:11.176Z,85.17
2019-05-02T00:52:40.791Z,85.65
2019-05-02T00:55:09.101Z,86.21
2019-05-02T00:57:37.491Z,86.00
2019-05-02T01:00:07.510Z,86.66
2019-05-02T01:02:42.167Z,86.16
2019-05-02T01:05:13.400Z,86.81
2019-05-02T01:07:41.581Z,87.29
2019-05-02T01:10:11.350Z,87.27
2019-05-02T01:12:39.873Z,86.94
2019-05-02T01:15:11.319Z,88.00
2019-05-02T01:17:39.512Z,88.45
2019-05-02T01:20:09.430Z,88.66
2019-05-02T01:22:37.771Z,89.10
2019-05-02T01:25:06.400Z,88.96
2019-05-02T01:27:42.863Z,89.91
2019-05-02T01:30:42.351Z,90.42
2019-05-02T01:33:21.468Z,91.24
2019-05-02T01:36:01.727Z,92.89
2019-05-02T01:38:36.777Z,92.18
2019-05-02T01:41:05.509Z,92.62
2019-05-02T01:43:33.653Z,92.51
2019-05-02T01:46:01.864Z,93.07
2019-05-02T01:48:30.394Z,93.56
2019-05-02T01:50:58.846Z,93.36
2019-05-02T01:53:29.457Z,93.06
2019-05-02T01:55:59.269Z,92.98
2019-05-02T01:58:27.853Z,92.56
2019-05-02T02:00:56.192Z,92.35
2019-05-02T02:03:24.341Z,92.42
2019-05-02T02:05:52.712Z,92.52
2019-05-02T02:08:21.333Z,92.01
2019-05-02T02:10:50.462Z,91.80
2019-05-02T02:13:20.097Z,91.51
2019-05-02T02:15:48.914Z,91.56
2019-05-02T02:18:22.082Z,92.14
2019-05-02T02:20:58.932Z,92.08
2019-05-02T02:23:34.954Z,92.57
2019-05-02T02:26:06.712Z,91.93
2019-05-02T02:28:36.810Z,92.19
2019-05-02T02:31:07.776Z,92.05
2019-05-02T02:33:41.005Z,91.67
2019-05-02T02:36:05.267Z,91.90
2019-05-02T02:38:35.377Z,92.01
2019-05-02T02:41:06.488Z,92.35
2019-05-02T02:43:35.056Z,92.37
2019-05-02T02:46:19.634Z,92.04
2019-05-02T02:48:48.121Z,92.37
2019-05-02T02:51:23.609Z,92.32
2019-05-02T02:53:46.955Z,92.15
2019-05-02T02:56:15.606Z,92.09
2019-05-02T02:58:47.489Z,92.21
2019-05-02T03:01:14.213Z,92.51
2019-05-02T03:03:42.370Z,92.44
2019-05-02T03:06:11.007Z,92.06
2019-05-02T03:08:46.319Z,92.31
2019-05-02T03:11:22.730Z,92.21
2019-05-02T03:14:06.699Z,92.63
2019-05-02T03:16:30.914Z,92.24
2019-05-02T03:18:59.581Z,92.40
2019-05-02T03:21:28.098Z,92.95
2019-05-02T03:24:03.310Z,92.44
2019-05-02T03:26:27.151Z,92.78
2019-05-02T03:28:58.391Z,92.60
2019-05-02T03:31:30.318Z,92.91
2019-05-02T03:34:00.495Z,92.58
2019-05-02T03:36:34.424Z,92.80
2019-05-02T03:38:58.896Z,92.74
2019-05-02T03:41:27.707Z,93.35
2019-05-02T03:44:09.811Z,93.34
2019-05-02T03:46:27.126Z,93.41
2019-05-02T03:49:05.947Z,93.71
2019-05-02T03:51:25.965Z,93.45
2019-05-02T03:54:06.444Z,93.40
2019-05-02T03:56:25.075Z,93.55
2019-05-02T03:58:56.494Z,93.12
2019-05-02T04:01:25.010Z,93.37
2019-05-02T04:03:53.663Z,93.65
2019-05-02T04:06:23.802Z,93.15
2019-05-02T04:08:58.892Z,93.05
2019-05-02T04:11:25.770Z,93.31
2019-05-02T04:13:57.251Z,92.95
2019-05-02T04:16:28.885Z,93.01
2019-05-02T04:19:01.518Z,93.20
2019-05-02T04:21:30.022Z,93.35
2019-05-02T04:24:06.624Z,93.68
2019-05-02T04:26:29.078Z,94.30
2019-05-02T04:28:57.877Z,94.36
2019-05-02T04:31:31.560Z,94.81
2019-05-02T04:33:56.478Z,95.15
2019-05-02T04:36:25.024Z,95.41
2019-05-02T04:38:53.531Z,95.83
2019-05-02T04:41:28.536Z,96.30
2019-05-02T04:43:57.410Z,97.10
2019-05-02T04:46:30.127Z,96.55
2019-05-02T04:48:53.410Z,96.71
2019-05-02T04:51:22.511Z,96.90
2019-05-02T04:53:50.771Z,97.62
2019-05-02T04:56:19.031Z,97.57
2019-05-02T04:58:49.330Z,97.92
2019-05-02T05:01:21.323Z,98.16
2019-05-02T05:03:57.382Z,98.12
2019-05-02T05:06:19.223Z,98.60
2019-05-02T05:08:48.228Z,98.45
2019-05-02T05:11:20.890Z,98.70
2019-05-02T05:13:47.950Z,98.38
2019-05-02T05:16:18.463Z,98.76
2019-05-02T05:18:51.263Z,98.46
2019-05-02T05:21:18.150Z,98.10
2019-05-02T05:24:09.655Z,98.29
2019-05-02T05:26:42.938Z,97.97
2019-05-02T05:29:13.986Z,98.12
2019-05-02T05:31:40.784Z,97.20
2019-05-02T05:34:09.869Z,97.17
2019-05-02T05:36:38.857Z,96.63
2019-05-02T05:39:09.473Z,96.93
2019-05-02T05:41:37.902Z,96.60
2019-05-02T05:44:07.833Z,96.38
2019-05-02T05:46:40.600Z,96.06
2019-05-02T05:49:10.573Z,95.90
2019-05-02T05:51:37.540Z,96.07
2019-05-02T05:54:07.717Z,96.45
2019-05-02T05:56:39.701Z,96.38
2019-05-02T05:59:07.805Z,96.82
2019-05-02T06:01:38.416Z,97.32
2019-05-02T06:04:08.034Z,97.72
2019-05-02T06:06:37.779Z,96.76
2019-05-02T06:09:07.905Z,96.66
2019-05-02T06:11:36.304Z,96.89
2019-05-02T06:14:04.963Z,97.23
2019-05-02T06:16:35.251Z,98.86
2019-05-02T06:19:03.798Z,98.73
2019-05-02T06:21:32.299Z,98.36
2019-05-02T06:24:00.817Z,98.63
2019-05-02T06:26:29.046Z,98.92
2019-05-02T06:28:57.200Z,98.95
2019-05-02T06:31:25.740Z,98.46
2019-05-02T06:33:53.886Z,98.50
2019-05-02T06:36:22.342Z,97.61
2019-05-02T06:38:52.122Z,97.42
2019-05-02T06:41:22.250Z,97.27
2019-05-02T06:43:50.624Z,97.33
2019-05-02T06:46:22.001Z,97.00
2019-05-02T06:48:52.222Z,97.61
2019-05-02T06:51:20.986Z,98.05
2019-05-02T06:53:49.799Z,97.05
2019-05-02T06:56:18.934Z,96.97
2019-05-02T06:58:47.331Z,97.99
2019-05-02T07:01:16.204Z,97.24
2019-05-02T07:03:47.567Z,97.59
2019-05-02T07:06:16.776Z,97.35
2019-05-02T07:08:45.746Z,97.22
2019-05-02T07:11:14.144Z,96.93
2019-05-02T07:13:43.808Z,97.39
2019-05-02T07:16:38.818Z,97.69
2019-05-02T07:19:29.184Z,97.80
2019-05-02T07:21:58.496Z,97.38
2019-05-02T07:24:30.600Z,97.06
2019-05-02T07:26:58.140Z,97.10
2019-05-02T07:29:26.513Z,97.01
2019-05-02T07:31:54.811Z,97.51
2019-05-02T07:34:23.420Z,97.29
2019-05-02T07:36:51.615Z,97.79
2019-05-02T07:39:20.111Z,97.95
2019-05-02T07:41:48.582Z,97.78
2019-05-02T07:44:16.837Z,97.72
2019-05-02T07:46:51.583Z,98.14
2019-05-02T07:49:15.184Z,98.39
2019-05-02T07:51:43.631Z,98.51
2019-05-02T07:54:12.242Z,98.46
2019-05-02T07:56:40.994Z,97.67
2019-05-02T07:59:09.278Z,96.97
2019-05-02T08:01:37.787Z,96.52
2019-05-02T08:04:11.014Z,96.42
2019-05-02T08:06:40.168Z,96.58
2019-05-02T08:09:09.205Z,96.37
2019-05-02T08:11:38.533Z,96.26
2019-05-02T08:14:07.003Z,96.39
2019-05-02T08:16:35.576Z,95.97
2019-05-02T08:19:05.400Z,95.38
2019-05-02T08:21:34.241Z,96.40
2019-05-02T08:24:03.631Z,95.83
2019-05-02T08:27:01.214Z,95.66
2019-05-02T08:29:30.799Z,96.16
2019-05-02T08:31:59.146Z,97.30
2019-05-02T08:34:33.179Z,97.30
2019-05-02T08:37:04.584Z,97.67
2019-05-02T08:39:33.892Z,97.69
2019-05-02T08:42:03.906Z,97.54
2019-05-02T08:44:32.146Z,97.62
2019-05-02T08:47:00.583Z,98.21
2019-05-02T08:49:29.292Z,97.34
2019-05-02T08:51:57.751Z,97.45
2019-05-02T08:54:27.924Z,97.47
2019-05-02T08:56:58.912Z,96.82
2019-05-02T08:59:26.690Z,96.49
2019-05-02T09:01:55.050Z,95.77
2019-05-02T09:04:24.239Z,95.39
2019-05-02T09:06:58.722Z,94.79
2019-05-02T09:09:28.044Z,93.71
2019-05-02T09:12:03.267Z,93.37
2019-05-02T09:14:25.077Z,91.89
2019-05-02T09:16:53.609Z,91.40
2019-05-02T09:19:26.281Z,90.38
2019-05-02T09:21:52.597Z,90.43
2019-05-02T09:24:23.814Z,91.44
2019-05-02T09:26:51.882Z,91.46
2019-05-02T09:29:22.214Z,91.44
2019-05-02T09:31:52.504Z,90.63
2019-05-02T09:34:22.857Z,90.35
2019-05-02T09:36:53.155Z,88.31
2019-05-02T09:39:22.728Z,87.80
2019-05-02T09:41:52.639Z,86.81
2019-05-02T09:44:22.379Z,86.91
2019-05-02T09:46:55.161Z,85.19
2019-05-02T09:49:22.097Z,83.66
2019-05-02T09:51:59.281Z,85.41
2019-05-02T09:54:23.195Z,82.28
2019-05-02T09:56:52.408Z,81.82
2019-05-02T09:59:30.114Z,81.85
2019-05-02T10:01:55.589Z,81.80
2019-05-02T10:04:24.488Z,82.30
2019-05-02T10:06:52.710Z,82.74
2019-05-02T10:09:24.307Z,82.67
2019-05-02T10:11:52.474Z,82.40
2019-05-02T10:14:22.638Z,82.06
2019-05-02T10:17:09.724Z,82.69
2019-05-02T10:19:57.287Z,82.09
2019-05-02T10:22:41.117Z,81.85
2019-05-02T10:25:11.791Z,82.72
2019-05-02T10:27:46.012Z,82.27
2019-05-02T10:30:15.665Z,82.18
2019-05-02T10:32:47.273Z,81.91
2019-05-02T10:35:17.055Z,82.52
2019-05-02T10:37:45.558Z,83.02
2019-05-02T10:40:17.155Z,81.52
2019-05-02T10:42:45.429Z,81.27
2019-05-02T10:45:16.710Z,80.94
2019-05-02T10:47:44.903Z,78.97
2019-05-02T10:50:27.403Z,77.03
2019-05-02T10:52:55.985Z,78.61
2019-05-02T10:55:25.207Z,78.63
2019-05-02T10:57:54.146Z,78.57
2019-05-02T11:00:29.571Z,79.67
2019-05-02T11:03:17.515Z,79.93
2019-05-02T11:05:49.066Z,81.27
2019-05-02T11:08:17.299Z,80.48
2019-05-02T11:10:45.809Z,78.90
2019-05-02T11:13:23.783Z,79.03
2019-05-02T11:16:12.228Z,78.31
2019-05-02T11:18:59.030Z,77.51
2019-05-02T11:21:27.568Z,75.51
2019-05-02T11:23:56.318Z,74.12
2019-05-02T11:26:25.515Z,73.84
2019-05-02T11:28:53.902Z,73.23
2019-05-02T11:31:22.417Z,71.58
2019-05-02T11:33:52.733Z,71.95
2019-05-02T11:36:22.300Z,72.57
2019-05-02T11:38:59.793Z,72.05
2019-05-02T11:41:22.399Z,71.04
2019-05-02T11:43:54.148Z,72.44
2019-05-02T11:46:22.068Z,73.60
2019-05-02T11:48:56.326Z,72.60
2019-05-02T11:51:22.529Z,72.72
2019-05-02T11:53:52.758Z,72.20
2019-05-02T11:56:22.229Z,72.79
2019-05-02T11:58:52.851Z,72.50
2019-05-02T12:01:34.741Z,71.81
2019-05-02T12:03:52.663Z,71.37
2019-05-02T12:06:22.485Z,71.48
2019-05-02T12:08:52.478Z,70.97
2019-05-02T12:11:22.921Z,71.27
2019-05-02T12:13:52.835Z,73.20
2019-05-02T12:16:22.996Z,75.13
2019-05-02T12:18:53.804Z,75.74
2019-05-02T12:21:22.848Z,75.81
2019-05-02T12:23:52.652Z,76.07
2019-05-02T12:26:22.099Z,74.84
2019-05-02T12:28:52.463Z,72.90
2019-05-02T12:31:28.818Z,72.86
2019-05-02T12:33:58.796Z,70.75
2019-05-02T12:36:27.341Z,70.41
2019-05-02T12:38:55.566Z,71.33
2019-05-02T12:41:25.285Z,71.66
2019-05-02T12:43:53.633Z,70.08
2019-05-02T12:46:22.296Z,70.30
2019-05-02T12:48:52.026Z,70.46
2019-05-02T12:51:22.360Z,70.95
2019-05-02T12:53:52.660Z,70.97
2019-05-02T12:56:22.881Z,71.12
2019-05-02T12:58:52.979Z,72.01
2019-05-02T13:01:22.192Z,73.02
2019-05-02T13:03:59.403Z,73.15
2019-05-02T13:06:27.980Z,72.77
2019-05-02T13:08:56.410Z,73.39
2019-05-02T13:11:52.622Z,72.99
2019-05-02T13:14:24.496Z,72.70
2019-05-02T13:17:01.010Z,72.45
2019-05-02T13:19:36.797Z,72.58
2019-05-02T13:22:04.554Z,71.72
2019-05-02T13:24:35.926Z,72.56
2019-05-02T13:27:09.299Z,72.93
2019-05-02T13:29:37.985Z,72.59
2019-05-02T13:32:17.411Z,72.52
2019-05-02T13:34:55.545Z,73.33
2019-05-02T13:37:23.749Z,72.72
2019-05-02T13:40:02.783Z,74.00
2019-05-02T13:42:31.151Z,74.30
2019-05-02T13:45:26.481Z,73.84
2019-05-02T13:47:55.132Z,75.50
2019-05-02T13:50:23.972Z,76.81
2019-05-02T13:52:57.713Z,77.35
2019-05-02T13:55:27.650Z,78.54
2019-05-02T13:57:55.942Z,79.03
2019-05-02T14:00:31.919Z,79.64
2019-05-02T14:03:02.863Z,80.02
2019-05-02T14:05:31.760Z,79.67
2019-05-02T14:08:19.736Z,78.14
2019-05-02T14:10:52.688Z,77.09
2019-05-02T14:13:22.142Z,74.98
2019-05-02T14:15:52.624Z,75.12
2019-05-02T14:18:28.726Z,73.50
2019-05-02T14:20:52.690Z,74.02
2019-05-02T14:23:22.178Z,73.73
2019-05-02T14:25:52.074Z,74.65
2019-05-02T14:28:22.272Z,75.17
2019-05-02T14:30:52.477Z,75.53
2019-05-02T14:33:23.392Z,74.11
2019-05-02T14:35:52.705Z,74.26
2019-05-02T14:38:22.071Z,73.46
2019-05-02T14:41:12.432Z,73.64
2019-05-02T14:44:09.049Z,74.13
2019-05-02T14:46:39.441Z,74.16
2019-05-02T14:49:07.545Z,75.24
2019-05-02T14:51:36.955Z,76.87
2019-05-02T14:54:08.416Z,76.58
2019-05-02T14:57:02.011Z,76.99
2019-05-02T14:59:32.128Z,76.07
2019-05-02T15:02:07.478Z,75.39
2019-05-02T15:04:38.126Z,73.69
2019-05-02T15:07:04.947Z,73.47
2019-05-02T15:09:36.107Z,73.64
2019-05-02T15:12:13.506Z,73.89
2019-05-02T15:14:34.645Z,74.69
2019-05-02T15:17:04.044Z,74.91
2019-05-02T15:19:32.885Z,75.22
2019-05-02T15:22:02.414Z,75.53
2019-05-02T15:24:33.210Z,75.94
2019-05-02T15:27:03.960Z,75.91
2019-05-02T15:29:32.193Z,75.51
2019-05-02T15:32:25.475Z,76.54
2019-05-02T15:35:05.690Z,76.97
2019-05-02T15:37:35.807Z,78.27
2019-05-02T15:42:35.124Z,78.74
2019-05-02T15:45:05.685Z,81.25
2019-05-02T15:47:37.182Z,88.25
2019-05-02T15:50:04.848Z,93.41
2019-05-02T15:52:35.505Z,95.27
2019-05-02T15:55:04.586Z,96.65
2019-05-02T15:57:43.127Z,98.39
2019-05-02T16:00:05.815Z,98.46
2019-05-02T16:02:34.763Z,97.66
2019-05-02T16:05:05.488Z,97.81
2019-05-02T16:07:37.903Z,97.63
2019-05-02T16:10:04.967Z,97.34
2019-05-02T16:12:36.037Z,97.55
2019-05-02T16:15:13.039Z,96.80
2019-05-02T16:17:35.622Z,96.92
2019-05-02T16:20:13.363Z,94.09
2019-05-02T16:22:46.227Z,93.23
2019-05-02T16:25:12.236Z,91.98
2019-05-02T16:27:45.278Z,90.42
2019-05-02T16:30:17.797Z,89.47
2019-05-02T16:32:52.262Z,85.86
2019-05-02T16:35:22.322Z,87.73
2019-05-02T16:37:52.338Z,85.00
2019-05-02T16:40:29.457Z,82.69
2019-05-02T16:42:51.917Z,82.46
2019-05-02T16:45:22.080Z,78.34
2019-05-02T16:47:58.679Z,76.76
2019-05-02T16:50:22.897Z,78.88
2019-05-02T16:52:53.007Z,78.01
2019-05-02T16:55:26.614Z,79.39
2019-05-02T16:57:56.856Z,80.58
2019-05-02T17:00:25.008Z,82.62
2019-05-02T17:02:53.654Z,84.96
2019-05-02T17:05:22.124Z,85.75
2019-05-02T17:08:20.205Z,86.57
2019-05-02T17:11:08.884Z,87.51
2019-05-02T17:13:37.181Z,87.99
2019-05-02T17:16:12.959Z,88.69
2019-05-02T17:18:36.021Z,89.05
2019-05-02T17:21:04.406Z,89.83
2019-05-02T17:23:32.942Z,91.53
2019-05-02T17:26:01.720Z,93.04
2019-05-02T17:28:31.617Z,93.93
2019-05-02T17:31:00.308Z,94.50
2019-05-02T17:33:28.744Z,95.58
2019-05-02T17:35:57.386Z,95.23
2019-05-02T17:38:29.161Z,93.72
2019-05-02T17:40:59.288Z,90.52
2019-05-02T17:43:26.026Z,87.77
2019-05-02T17:45:56.246Z,87.09
2019-05-02T17:48:25.122Z,87.43
2019-05-02T17:51:08.791Z,88.00
2019-05-02T17:53:41.315Z,88.77
2019-05-02T17:56:13.076Z,89.30
2019-05-02T17:58:39.754Z,90.36
2019-05-02T18:01:13.565Z,91.52
2019-05-02T18:03:42.518Z,93.19
2019-05-02T18:06:12.633Z,93.44
2019-05-02T18:08:41.750Z,91.76
2019-05-02T18:11:10.054Z,91.59
2019-05-02T18:13:38.513Z,91.07
2019-05-02T18:16:15.061Z,90.30
2019-05-02T18:18:42.649Z,89.96
2019-05-02T18:21:07.680Z,89.80
2019-05-02T18:23:36.662Z,89.39
2019-05-02T18:26:06.349Z,89.25
2019-05-02T18:28:46.049Z,88.83
2019-05-02T18:31:05.920Z,87.59
2019-05-02T18:33:35.834Z,87.96
2019-05-02T18:36:05.047Z,88.68
2019-05-02T18:38:33.224Z,87.06
2019-05-02T18:41:05.972Z,87.10
2019-05-02T18:43:36.053Z,87.02
2019-05-02T18:46:07.479Z,87.02
2019-05-02T18:48:36.701Z,87.07
2019-05-02T18:51:04.142Z,87.47
2019-05-02T18:53:32.743Z,88.54
2019-05-02T18:56:03.454Z,88.11
2019-05-02T18:58:32.001Z,88.50
2019-05-02T19:01:00.328Z,87.92
2019-05-02T19:03:28.796Z,87.95
2019-05-02T19:05:58.328Z,87.67
2019-05-02T19:08:33.684Z,88.01
2019-05-02T19:11:08.967Z,88.53
2019-05-02T19:13:32.703Z,88.08
2019-05-02T19:16:02.045Z,88.34
2019-05-02T19:18:32.403Z,88.37
2019-05-02T19:21:04.630Z,88.63
2019-05-02T19:23:34.657Z,88.63
2019-05-02T19:26:09.843Z,88.05
2019-05-02T19:28:57.926Z,88.42
2019-05-02T19:31:36.614Z,88.56
2019-05-02T19:34:04.135Z,88.60
2019-05-02T19:36:32.819Z,88.93
2019-05-02T19:39:06.303Z,89.13
2019-05-02T19:41:32.075Z,88.93
2019-05-02T19:44:02.318Z,88.87
2019-05-02T19:46:34.595Z,88.53
2019-05-02T19:49:02.092Z,88.67
2019-05-02T19:51:31.747Z,88.78
2019-05-02T19:54:03.230Z,88.61
2019-05-02T19:56:33.385Z,89.37
2019-05-02T19:59:02.566Z,89.21
2019-05-02T20:01:31.017Z,89.03
2019-05-02T20:04:04.397Z,89.15
2019-05-02T20:06:32.436Z,90.20
2019-05-02T20:09:04.792Z,91.24
2019-05-02T20:11:33.019Z,90.96
2019-05-02T20:14:07.007Z,92.62
2019-05-02T20:16:47.821Z,91.41
2019-05-02T20:19:17.377Z,91.89
2019-05-02T20:22:06.648Z,91.93
2019-05-02T20:24:59.864Z,91.67
2019-05-02T20:27:28.144Z,92.10
2019-05-02T20:29:55.779Z,91.92
2019-05-02T20:32:24.641Z,91.41
2019-05-02T20:34:52.875Z,92.39
2019-05-02T20:37:22.155Z,92.38
2019-05-02T20:39:51.079Z,92.28
2019-05-02T20:42:19.253Z,92.33
2019-05-02T20:44:47.409Z,92.06
2019-05-02T20:47:24.147Z,92.10
2019-05-02T20:49:52.495Z,91.89
2019-05-02T20:52:21.759Z,92.08
2019-05-02T20:54:52.192Z,91.31
2019-05-02T20:57:20.558Z,91.30
2019-05-02T20:59:48.963Z,91.27
2019-05-02T21:02:17.207Z,90.80
2019-05-02T21:04:45.358Z,90.94
2019-05-02T21:07:33.264Z,91.16
2019-05-02T21:10:06.822Z,90.62
2019-05-02T21:12:35.105Z,90.44
2019-05-02T21:15:04.052Z,90.14
2019-05-02T21:17:32.760Z,90.13
2019-05-02T21:20:01.923Z,89.82
2019-05-02T21:22:32.730Z,90.21
2019-05-02T21:25:02.458Z,89.75
2019-05-02T21:27:32.388Z,89.38
2019-05-02T21:30:01.507Z,89.63
2019-05-02T21:32:32.044Z,89.20
2019-05-02T21:34:59.948Z,88.73
2019-05-02T21:37:28.656Z,88.02
2019-05-02T21:39:57.264Z,86.94
2019-05-02T21:42:25.520Z,86.49
2019-05-02T21:44:55.033Z,86.07
2019-05-02T21:47:23.228Z,85.00
2019-05-02T21:50:06.587Z,84.72
2019-05-02T21:52:54.300Z,84.34
2019-05-02T21:55:44.535Z,84.24
2019-05-02T21:58:12.722Z,84.40
2019-05-02T22:00:52.772Z,84.30
2019-05-02T22:03:21.720Z,84.58
2019-05-02T22:05:51.800Z,84.36
2019-05-02T22:08:21.672Z,84.53
2019-05-02T22:10:52.140Z,84.40
2019-05-02T22:13:22.241Z,84.31
2019-05-02T22:15:51.653Z,84.24
2019-05-02T22:18:21.678Z,84.52
2019-05-02T22:20:52.172Z,84.39
2019-05-02T22:23:20.415Z,84.28
2019-05-02T22:25:48.879Z,84.12
2019-05-02T22:28:17.033Z,84.19
2019-05-02T22:30:45.275Z,84.50
2019-05-02T22:33:14.068Z,84.75
2019-05-02T22:35:43.389Z,84.76
2019-05-02T22:38:42.224Z,84.56
2019-05-02T22:41:12.151Z,85.22
2019-05-02T22:43:42.149Z,84.65
2019-05-02T22:46:14.076Z,84.97
2019-05-02T22:48:42.786Z,85.63
2019-05-02T22:51:12.057Z,85.81
2019-05-02T22:53:41.737Z,85.21
2019-05-02T22:56:13.195Z,85.62
2019-05-02T22:58:42.017Z,85.27
2019-05-02T23:01:10.409Z,85.87
2019-05-02T23:03:38.912Z,85.68
2019-05-02T23:06:07.909Z,85.39
2019-05-02T23:08:36.402Z,85.40
2019-05-02T23:11:05.241Z,85.25
2019-05-02T23:13:33.723Z,85.16
2019-05-02T23:16:02.916Z,85.99
2019-05-02T23:18:31.964Z,86.39
2019-05-02T23:21:02.130Z,85.64
2019-05-02T23:23:32.588Z,85.45
2019-05-02T23:26:32.640Z,85.33
2019-05-02T23:29:02.304Z,84.83
2019-05-02T23:31:31.767Z,83.92
2019-05-02T23:34:02.093Z,82.93
2019-05-02T23:36:32.439Z,82.94
2019-05-02T23:39:02.680Z,82.04
2019-05-02T23:41:32.726Z,82.06
2019-05-02T23:44:02.815Z,81.71
2019-05-02T23:46:31.575Z,81.57
2019-05-02T23:49:01.955Z,81.46
2019-05-02T23:51:32.052Z,81.69
2019-05-02T23:54:02.123Z,81.29
2019-05-02T23:56:32.534Z,80.87
2019-05-02T23:59:02.696Z,80.42
